Time;durP1;ratioP1;P1;durP2;ratioP2;P2;SDS_P1;SDS_P2;PMS_P1;PMS_P2;Temp;Humidity;BMP_temperature;BMP_pressure;BME280_temperature;BME280_humidity;BME280_pressure;Samples;Min_cycle;Max_cycle;Signal;HPM_P1;HPM_P2
2023/12/22 00:01:30;;;;;;;;;;;12.10;51.40;;;12.22;54.18;98895.91;5071859;28;20377;-36
2023/12/22 00:03:58;;;;;;;;;;;12.10;51.40;;;12.26;54.76;98903.00;5072621;28;19929;-37
2023/12/22 00:06:25;;;;;;;;;;;12.10;51.40;;;12.23;54.90;98907.72;5061535;28;20335;-35
2023/12/22 00:08:55;;;;;;;;;;;12.10;51.40;;;12.26;54.79;98892.97;5072351;28;19924;-36
2023/12/22 00:11:23;;;;;;;;;;;12.10;52.00;;;12.25;55.19;98906.25;5072512;28;20041;-35
2023/12/22 00:13:50;;;;;;;;;;;12.10;51.40;;;12.27;53.86;98919.81;5071898;28;20299;-35
2023/12/22 00:16:18;;;;;;;;;;;12.10;51.30;;;12.28;54.36;98921.59;5071450;28;19932;-35
2023/12/22 00:18:46;;;;;;;;;;;12.10;51.30;;;12.32;54.07;98921.16;5072241;28;19925;-35
2023/12/22 00:21:14;;;;;;;;;;;12.10;51.30;;;12.34;54.19;98912.13;5072336;28;19924;-36
2023/12/22 00:23:42;;;;;;;;;;;12.10;51.20;;;12.37;54.35;98932.53;5072618;28;20011;-35
2023/12/22 00:26:11;;;;;;;;;;;12.20;51.20;;;12.13;54.18;98885.00;5071270;28;20021;-35
2023/12/22 00:28:39;;;;;;;;;;;12.20;51.10;;;12.36;54.01;98915.69;5071844;28;19947;-38
2023/12/22 00:31:08;;;;;;;;;;;12.20;51.20;;;12.38;53.95;98929.28;5071815;28;19941;-40
2023/12/22 00:33:36;;;;;;;;;;;12.20;51.10;;;12.40;54.29;98937.81;5071910;28;20016;-36
2023/12/22 00:36:04;;;;;;;;;;;12.20;51.00;;;12.40;53.90;98932.81;5072160;28;19942;-37
2023/12/22 00:38:32;;;;;;;;;;;12.20;51.00;;;12.41;54.90;98942.13;5075655;28;19924;-36
2023/12/22 00:41:00;;;;;;;;;;;12.20;51.10;;;12.41;54.33;98932.06;5075512;28;20015;-36
2023/12/22 00:43:30;;;;;;;;;;;12.20;51.10;;;12.44;54.56;98944.94;5075392;28;19935;-37
2023/12/22 00:45:58;;;;;;;;;;;12.20;51.00;;;12.44;53.89;98949.97;5075090;28;19975;-35
2023/12/22 00:48:26;;;;;;;;;;;12.20;50.90;;;12.43;53.93;98939.03;5075426;28;19931;-38
2023/12/22 00:50:54;;;;;;;;;;;12.30;51.60;;;12.39;54.12;98936.09;5075391;28;19924;-39
2023/12/22 00:53:22;;;;;;;;;;;12.20;50.80;;;12.34;53.16;98942.25;5075180;28;19955;-35
2023/12/22 00:55:49;;;;;;;;;;;12.20;50.80;;;12.33;53.78;98935.50;5074308;28;20284;-35
2023/12/22 00:58:17;;;;;;;;;;;12.20;50.80;;;12.33;53.41;98930.47;5074932;28;19964;-35
2023/12/22 01:00:47;;;;;;;;;;;12.10;50.80;;;12.30;54.78;98930.16;5066773;28;19974;-35
2023/12/22 01:03:15;;;;;;;;;;;12.20;50.90;;;12.33;54.39;98943.03;5075484;28;19928;-36
2023/12/22 01:05:42;;;;;;;;;;;12.20;50.90;;;12.33;53.33;98935.50;5066886;28;19936;-36
2023/12/22 01:08:10;;;;;;;;;;;12.20;51.50;;;12.32;54.52;98944.66;5073994;28;19979;-35
2023/12/22 01:10:38;;;;;;;;;;;12.20;50.90;;;12.29;54.56;98923.38;5074833;28;19954;-35
2023/12/22 01:13:06;;;;;;;;;;;12.20;51.00;;;12.28;53.71;98936.66;5075260;28;19925;-34
2023/12/22 01:15:34;;;;;;;;;;;12.20;50.90;;;12.33;54.22;98940.53;5074796;28;19928;-34
2023/12/22 01:18:03;;;;;;;;;;;12.20;50.80;;;12.35;53.53;98939.03;5074669;28;19931;-35
2023/12/22 01:20:31;;;;;;;;;;;12.20;50.80;;;12.39;54.67;98938.59;5074413;28;20441;-35
2023/12/22 01:22:59;;;;;;;;;;;12.20;50.80;;;12.47;53.46;98931.03;5074921;28;19928;-34
2023/12/22 01:25:27;;;;;;;;;;;12.30;50.90;;;12.52;53.90;98941.50;5075015;28;19929;-35
2023/12/22 01:27:55;;;;;;;;;;;12.30;50.70;;;12.63;53.66;98940.91;5074334;28;20323;-35
2023/12/22 01:30:23;;;;;;;;;;;12.30;50.60;;;12.71;53.42;98941.63;5074614;28;19963;-35
2023/12/22 01:32:51;;;;;;;;;;;12.30;50.70;;;12.74;53.65;98952.84;5074911;28;20007;-35
2023/12/22 01:35:21;;;;;;;;;;;12.40;50.60;;;12.82;52.30;98946.03;5074396;28;20380;-35
2023/12/22 01:37:49;;;;;;;;;;;12.40;50.60;;;12.85;53.28;98957.25;5073503;28;20388;-35
2023/12/22 01:40:17;;;;;;;;;;;12.40;50.40;;;12.82;53.01;98956.97;5074111;28;19925;-37
2023/12/22 01:42:46;;;;;;;;;;;12.40;50.40;;;12.84;52.85;98960.50;5066116;28;20384;-38
2023/12/22 01:45:14;;;;;;;;;;;12.40;50.40;;;12.76;52.96;98963.94;5074205;28;20395;-35
2023/12/22 01:47:42;;;;;;;;;;;12.50;50.40;;;12.74;53.21;98937.78;5072856;28;19931;-36
2023/12/22 01:50:11;;;;;;;;;;;12.40;50.30;;;12.69;52.71;98938.97;5074183;28;19929;-35
2023/12/22 01:52:41;;;;;;;;;;;12.40;50.30;;;12.66;53.52;98948.72;5073589;28;21045;-35
2023/12/22 01:55:10;;;;;;;;;;;12.40;50.30;;;12.63;53.16;98958.50;5073932;28;19925;-35
2023/12/22 01:57:38;;;;;;;;;;;12.40;50.40;;;12.59;52.94;98968.97;5072815;28;20344;-36
2023/12/22 02:00:07;;;;;;;;;;;12.40;50.50;;;12.55;53.00;98987.03;5073801;28;19924;-36
2023/12/22 02:02:35;;;;;;;;;;;12.30;50.40;;;12.52;53.33;98994.25;5073386;28;19924;-38
2023/12/22 02:05:04;;;;;;;;;;;12.30;50.50;;;12.48;53.34;98992.19;5073869;28;19971;-39
2023/12/22 02:07:31;;;;;;;;;;;12.30;50.40;;;12.43;53.22;98990.88;5070665;28;20277;-36
2023/12/22 02:10:01;;;;;;;;;;;12.20;50.30;;;12.39;53.50;98998.88;5067296;28;19963;-36
2023/12/22 02:12:29;;;;;;;;;;;12.20;50.30;;;12.36;53.75;99001.06;5073546;28;19931;-36
2023/12/22 02:14:56;;;;;;;;;;;12.20;50.50;;;12.36;54.15;99016.13;5073466;28;19924;-36
2023/12/22 02:17:26;;;;;;;;;;;12.20;50.50;;;12.33;53.69;99005.81;5064478;28;20024;-35
2023/12/22 02:19:55;;;;;;;;;;;12.10;50.40;;;12.31;53.75;99013.19;5073347;28;19967;-37
2023/12/22 02:22:23;;;;;;;;;;;12.10;50.40;;;12.29;54.09;99003.72;5073057;28;20298;-38
2023/12/22 02:24:53;;;;;;;;;;;12.10;50.50;;;11.58;53.84;98885.53;5073409;28;19929;-37
2023/12/22 02:27:26;;;;;;;;;;;12.10;50.50;;;12.25;53.55;99016.72;5072389;28;19934;-34
2023/12/22 02:29:57;;;;;;;;;;;12.10;50.50;;;12.23;52.85;98993.97;5066241;28;20021;-35
2023/12/22 02:32:31;;;;;;;;;;;12.10;50.50;;;12.20;53.53;98987.78;5073010;28;20376;-34
2023/12/22 02:34:59;;;;;;;;;;;12.00;50.50;;;12.21;53.95;99019.66;5073233;28;19924;-35
2023/12/22 02:37:27;;;;;;;;;;;12.00;50.50;;;12.16;54.01;98993.22;5071834;28;19924;-36
2023/12/22 02:39:56;;;;;;;;;;;12.00;50.50;;;12.18;54.27;99009.34;5072846;28;19932;-35
2023/12/22 02:42:29;;;;;;;;;;;12.00;50.50;;;12.19;54.08;99016.13;5072988;28;20011;-34
2023/12/22 02:44:58;;;;;;;;;;;12.00;50.50;;;12.17;53.25;98992.50;5068455;28;20391;-34
2023/12/22 02:47:27;;;;;;;;;;;12.00;50.50;;;12.18;53.78;98996.78;5069007;28;19964;-35
2023/12/22 02:49:55;;;;;;;;;;;12.00;50.40;;;12.17;53.51;99002.53;5073158;28;20292;-35
2023/12/22 02:52:23;;;;;;;;;;;12.00;50.40;;;12.16;53.47;99001.66;5072548;28;19928;-38
2023/12/22 02:54:51;;;;;;;;;;;12.00;50.50;;;12.19;53.81;99001.06;5073088;28;20399;-37
2023/12/22 02:57:20;;;;;;;;;;;12.00;50.40;;;12.21;53.44;99000.47;5071844;28;20007;-36
2023/12/22 02:59:48;;;;;;;;;;;12.00;50.40;;;12.24;53.11;99004.91;5063746;28;20385;-38
2023/12/22 03:02:16;;;;;;;;;;;12.10;50.50;;;12.27;53.60;99011.09;5072642;28;19924;-35
2023/12/22 03:04:46;;;;;;;;;;;12.10;50.50;;;12.31;53.41;99009.78;5072324;28;19954;-35
2023/12/22 03:07:14;;;;;;;;;;;12.10;50.40;;;12.33;53.61;99020.88;5070746;28;20442;-37
2023/12/22 03:09:42;;;;;;;;;;;12.10;50.40;;;12.40;52.99;99028.25;5072431;28;19990;-36
2023/12/22 03:12:10;;;;;;;;;;;12.20;50.40;;;12.40;53.92;99039.19;5072409;28;19924;-35
2023/12/22 03:14:39;;;;;;;;;;;12.20;50.50;;;12.44;53.03;99036.25;5072566;28;20031;-36
2023/12/22 03:17:07;;;;;;;;;;;12.20;50.30;;;12.45;53.56;99032.09;5071620;28;20402;-35
2023/12/22 03:19:35;;;;;;;;;;;12.20;50.40;;;12.48;53.45;99027.34;5072093;28;20353;-36
2023/12/22 03:22:03;;;;;;;;;;;12.20;50.20;;;12.48;53.39;99024.84;5072730;28;19928;-36
2023/12/22 03:24:31;;;;;;;;;;;12.30;50.30;;;12.49;53.43;99026.63;5072339;28;20003;-35
2023/12/22 03:26:59;;;;;;;;;;;12.30;50.30;;;12.52;53.09;99024.41;5063550;28;19924;-35
2023/12/22 03:29:27;;;;;;;;;;;12.30;50.30;;;12.54;53.27;99010.38;5072028;28;20383;-36
2023/12/22 03:31:56;;;;;;;;;;;12.30;50.30;;;12.53;52.92;99006.06;5072090;28;19999;-37
2023/12/22 03:34:24;;;;;;;;;;;12.30;50.20;;;12.52;53.15;99004.28;5072397;28;19932;-35
2023/12/22 03:36:52;;;;;;;;;;;12.30;50.20;;;12.55;52.48;99004.59;5063515;28;19928;-35
2023/12/22 03:39:20;;;;;;;;;;;12.30;50.30;;;12.52;53.38;98999.28;5072076;28;19975;-35
2023/12/22 03:41:48;;;;;;;;;;;12.30;50.30;;;12.52;52.97;99021.88;5063865;28;19931;-36
2023/12/22 03:44:16;;;;;;;;;;;12.30;50.30;;;12.55;53.56;99028.84;5071943;28;20015;-36
2023/12/22 03:46:44;;;;;;;;;;;12.30;50.30;;;12.51;53.10;99032.69;5071147;28;20308;-35
2023/12/22 03:49:13;;;;;;;;;;;12.30;50.90;;;12.45;53.08;99027.97;5072127;28;19928;-35
2023/12/22 03:51:41;;;;;;;;;;;12.30;50.30;;;12.46;53.45;99023.81;5069878;28;19990;-38
2023/12/22 03:54:10;;;;;;;;;;;12.30;50.30;;;12.44;53.38;99035.34;5066272;28;19925;-38
2023/12/22 03:56:38;;;;;;;;;;;12.30;50.40;;;12.42;53.36;99036.81;5071184;28;19932;-35
2023/12/22 03:59:05;;;;;;;;;;;12.20;50.20;;;12.41;52.88;99045.09;5071679;28;20011;-36
2023/12/22 04:01:33;;;;;;;;;;;12.20;50.30;;;12.40;53.26;99043.31;5071851;28;19925;-36
2023/12/22 04:04:01;;;;;;;;;;;12.20;50.30;;;12.38;52.67;99039.78;5071948;28;19973;-39
2023/12/22 04:06:30;;;;;;;;;;;12.20;50.30;;;12.38;53.90;99044.81;5070261;28;20011;-35
2023/12/22 04:08:58;;;;;;;;;;;12.20;50.40;;;12.34;54.02;99046.13;5097415;22;20011;-36
2023/12/22 04:11:26;;;;;;;;;;;12.20;50.40;;;12.33;52.81;99071.09;5095712;28;19924;-36
2023/12/22 04:13:54;;;;;;;;;;;12.10;50.40;;;12.28;53.26;99073.16;5088552;28;19931;-36
2023/12/22 04:16:22;;;;;;;;;;;12.10;50.30;;;12.28;53.85;99047.16;5095868;28;19924;-36
2023/12/22 04:18:50;;;;;;;;;;;12.10;50.40;;;12.25;53.70;99041.84;5096030;28;19924;-36
2023/12/22 04:21:18;;;;;;;;;;;12.10;50.40;;;12.22;53.82;99039.91;5095930;28;19955;-36
2023/12/22 04:23:47;;;;;;;;;;;12.10;50.40;;;12.21;52.84;99054.81;5095911;28;20026;-36
2023/12/22 04:26:15;;;;;;;;;;;12.00;50.90;;;12.17;53.11;99056.16;5095364;28;19963;-36
2023/12/22 04:28:43;;;;;;;;;;;12.00;50.30;;;12.16;53.52;99045.94;5095695;28;20360;-35
2023/12/22 04:31:11;;;;;;;;;;;12.00;50.30;;;12.14;53.75;99068.38;5096073;28;19928;-37
2023/12/22 04:33:39;;;;;;;;;;;12.00;50.20;;;12.15;53.67;99049.19;5095879;28;19986;-36
2023/12/22 04:36:07;;;;;;;;;;;12.00;50.20;;;12.14;53.02;99042.44;5095457;28;19928;-36
2023/12/22 04:38:35;;;;;;;;;;;12.00;50.20;;;12.13;52.89;99036.50;5095408;28;19924;-36
2023/12/22 04:41:04;;;;;;;;;;;12.00;50.30;;;12.14;53.10;99052.47;5096179;28;19946;-36
2023/12/22 04:43:32;;;;;;;;;;;12.00;50.30;;;12.15;53.45;99039.16;5095665;28;20018;-36
2023/12/22 04:46:00;;;;;;;;;;;12.00;50.30;;;12.15;53.23;99044.16;5094919;28;20019;-36
2023/12/22 04:48:28;;;;;;;;;;;12.00;50.20;;;12.17;52.84;99057.78;5095518;28;19927;-36
2023/12/22 04:50:56;;;;;;;;;;;12.00;50.20;;;12.20;53.80;99075.66;5087315;28;20349;-37
2023/12/22 04:53:24;;;;;;;;;;;12.00;50.20;;;12.21;52.90;99069.88;5095229;28;20370;-36
2023/12/22 04:55:52;;;;;;;;;;;12.00;50.20;;;12.22;53.30;99071.66;5094777;28;19924;-36
2023/12/22 04:58:22;;;;;;;;;;;12.00;50.20;;;12.25;53.43;99072.88;5095227;28;19924;-36
2023/12/22 05:00:49;;;;;;;;;;;12.00;50.10;;;12.27;53.14;99085.53;5095485;28;20367;-36
2023/12/22 05:03:17;;;;;;;;;;;12.10;50.20;;;12.30;53.23;99070.78;5095254;28;19978;-36
2023/12/22 05:05:45;;;;;;;;;;;12.10;50.30;;;12.30;52.81;99070.78;5095073;28;19928;-36
2023/12/22 05:08:14;;;;;;;;;;;12.10;50.20;;;12.32;52.81;99075.25;5095156;28;20384;-36
2023/12/22 05:10:42;;;;;;;;;;;12.10;50.20;;;12.36;52.75;99056.31;5094950;28;19928;-36
2023/12/22 05:13:10;;;;;;;;;;;12.10;50.40;;;12.37;53.30;99058.09;5095141;28;19977;-35
2023/12/22 05:15:40;;;;;;;;;;;12.20;50.40;;;12.43;53.06;99063.72;5094928;28;20031;-36
2023/12/22 05:18:07;;;;;;;;;;;12.20;50.40;;;12.45;53.64;99062.25;5094144;28;20018;-36
2023/12/22 05:20:36;;;;;;;;;;;12.20;50.20;;;12.46;53.61;99058.97;5095115;28;19950;-35
2023/12/22 05:23:04;;;;;;;;;;;12.30;50.30;;;12.47;52.97;99065.78;5094352;28;19986;-35
2023/12/22 05:25:32;;;;;;;;;;;12.30;50.40;;;12.46;53.29;99053.94;5095393;28;19924;-36
2023/12/22 05:28:00;;;;;;;;;;;12.30;50.00;;;12.50;52.75;99073.63;5094682;28;20391;-36
2023/12/22 05:30:28;;;;;;;;;;;12.30;50.00;;;12.53;53.12;99086.47;5095145;28;19971;-36
2023/12/22 05:32:57;;;;;;;;;;;12.30;50.00;;;12.53;53.00;99090.59;5094436;28;19924;-36
2023/12/22 05:35:25;;;;;;;;;;;12.30;50.00;;;12.50;53.38;99081.16;5095173;28;20391;-36
2023/12/22 05:37:53;;;;;;;;;;;12.30;49.90;;;12.49;53.12;99069.34;5095641;28;19939;-36
2023/12/22 05:40:21;;;;;;;;;;;12.30;49.90;;;12.48;53.11;99077.59;5095093;28;19930;-36
2023/12/22 05:42:49;;;;;;;;;;;12.30;49.90;;;12.46;52.55;99089.13;5094993;28;20256;-36
2023/12/22 05:45:18;;;;;;;;;;;12.30;50.00;;;12.43;52.91;99083.81;5094438;28;20273;-36
2023/12/22 05:47:46;;;;;;;;;;;12.30;50.00;;;12.38;52.99;99088.41;5093583;28;19995;-36
2023/12/22 05:50:16;;;;;;;;;;;12.20;50.00;;;12.37;53.37;99084.09;5094500;28;19924;-36
2023/12/22 05:52:44;;;;;;;;;;;12.20;50.10;;;12.35;53.69;99102.25;5094324;28;19965;-36
2023/12/22 05:55:12;;;;;;;;;;;12.20;50.20;;;12.32;53.12;99104.50;5094607;28;19930;-36
2023/12/22 05:57:40;;;;;;;;;;;12.10;50.10;;;12.30;52.84;99080.84;5093461;28;19977;-36
2023/12/22 06:00:11;;;;;;;;;;;12.10;50.20;;;12.25;52.89;99097.09;5094102;28;19979;-37
2023/12/22 06:02:39;;;;;;;;;;;12.10;50.10;;;12.24;52.88;99090.28;5094119;28;20329;-36
2023/12/22 06:05:07;;;;;;;;;;;12.10;50.20;;;12.22;52.80;99101.78;5094365;28;19924;-36
2023/12/22 06:07:37;;;;;;;;;;;12.00;50.10;;;12.20;53.75;99094.13;5093186;28;20395;-36
2023/12/22 06:10:06;;;;;;;;;;;12.00;50.10;;;12.18;53.37;99099.72;5094230;28;20379;-36
2023/12/22 06:12:34;;;;;;;;;;;12.00;50.10;;;12.18;54.12;99112.28;5093955;28;19971;-37
2023/12/22 06:15:02;;;;;;;;;;;12.00;50.20;;;12.16;53.70;99116.25;5094248;28;19924;-36
2023/12/22 06:17:30;;;;;;;;;;;12.00;50.20;;;12.16;53.08;99116.25;5092988;28;19982;-36
2023/12/22 06:19:58;;;;;;;;;;;12.00;50.30;;;12.14;53.06;99122.75;5093680;28;19924;-36
2023/12/22 06:22:26;;;;;;;;;;;11.90;50.20;;;12.13;53.52;99126.00;5093720;28;19924;-36
2023/12/22 06:24:55;;;;;;;;;;;12.00;50.30;;;12.09;53.20;99113.13;5093882;28;20288;-36
2023/12/22 06:27:23;;;;;;;;;;;11.90;50.20;;;12.12;53.69;99134.28;5093328;28;20015;-36
2023/12/22 06:29:51;;;;;;;;;;;11.90;50.20;;;12.12;53.85;99154.34;5093962;28;20009;-36
2023/12/22 06:32:19;;;;;;;;;;;11.90;50.20;;;12.12;53.80;99151.84;5093942;28;19978;-36
2023/12/22 06:34:47;;;;;;;;;;;11.90;50.20;;;12.11;53.34;99143.41;5093665;28;19930;-35
2023/12/22 06:37:15;;;;;;;;;;;11.90;50.10;;;12.14;53.60;99157.91;5092907;28;19932;-36
2023/12/22 06:39:43;;;;;;;;;;;11.90;50.10;;;12.14;53.23;99152.91;5093290;28;20366;-36
2023/12/22 06:42:13;;;;;;;;;;;12.00;50.10;;;12.14;53.24;99153.75;5095717;28;19924;-36
2023/12/22 06:44:42;;;;;;;;;;;12.00;50.20;;;12.18;53.72;99149.94;5093655;28;20034;-36
2023/12/22 06:47:10;;;;;;;;;;;12.00;50.20;;;12.23;53.34;99148.75;5092763;28;19927;-36
2023/12/22 06:49:38;;;;;;;;;;;12.00;50.10;;;12.26;53.54;99149.09;5093065;28;19924;-37
2023/12/22 06:52:06;;;;;;;;;;;12.10;50.20;;;12.29;53.35;99159.41;5093730;28;20368;-36
2023/12/22 06:54:35;;;;;;;;;;;12.10;50.10;;;12.32;53.14;99174.81;5093718;28;19928;-36
2023/12/22 06:57:03;;;;;;;;;;;12.10;49.90;;;12.36;53.34;99176.88;5084625;28;19970;-36
2023/12/22 06:59:33;;;;;;;;;;;12.20;50.00;;;12.39;52.77;99192.25;5093168;28;20015;-36
2023/12/22 07:02:01;;;;;;;;;;;12.20;49.90;;;12.41;52.58;99186.63;5084905;28;19924;-36
2023/12/22 07:05:20;;;;;;;;;;;12.20;49.90;;;12.43;52.76;99194.31;5093122;28;20335;-36
2023/12/22 07:07:48;;;;;;;;;;;12.30;49.90;;;12.43;52.21;99185.16;5091962;28;20358;-36
2023/12/22 07:10:17;;;;;;;;;;;12.30;49.80;;;12.44;52.79;99196.09;5091651;28;20426;-36
2023/12/22 07:12:45;;;;;;;;;;;12.30;49.90;;;12.46;52.98;99189.59;5092668;28;19924;-37
2023/12/22 07:15:14;;;;;;;;;;;12.30;49.90;;;12.45;52.93;99178.69;5093007;28;19977;-36
2023/12/22 07:17:42;;;;;;;;;;;12.30;49.90;;;12.46;52.55;99192.09;5092424;28;19924;-36
2023/12/22 07:20:11;;;;;;;;;;;12.30;49.90;;;12.48;52.68;99193.16;5092663;28;19935;-36
2023/12/22 07:22:39;;;;;;;;;;;12.30;50.00;;;12.46;52.99;99184.56;5092661;28;20391;-36
2023/12/22 07:25:08;;;;;;;;;;;12.20;50.00;;;12.46;52.28;99184.56;5092614;28;20466;-36
2023/12/22 07:27:36;;;;;;;;;;;12.20;49.80;;;12.45;52.98;99192.88;5092109;28;19924;-36
2023/12/22 07:30:05;;;;;;;;;;;12.20;49.80;;;12.45;52.70;99197.88;5084201;28;19924;-37
2023/12/22 07:32:36;;;;;;;;;;;12.20;50.00;;;12.43;52.64;99201.84;5093213;28;19931;-36
2023/12/22 07:35:04;;;;;;;;;;;12.20;50.00;;;12.42;53.25;99200.09;5092891;28;20291;-36
2023/12/22 07:37:32;;;;;;;;;;;12.20;50.00;;;12.36;52.65;99186.91;5092015;28;19928;-36
2023/12/22 07:40:00;;;;;;;;;;;12.20;50.00;;;12.34;53.01;99193.41;5091794;28;20274;-36
2023/12/22 07:42:28;;;;;;;;;;;12.10;49.90;;;12.32;53.37;99199.91;5092461;28;19979;-37
2023/12/22 07:44:56;;;;;;;;;;;12.10;50.00;;;12.29;52.63;99200.47;5092097;28;19937;-36
2023/12/22 07:47:24;;;;;;;;;;;12.10;50.00;;;12.27;52.74;99196.03;5092014;28;19979;-36
2023/12/22 07:49:53;;;;;;;;;;;12.10;50.10;;;12.25;53.13;99205.94;5091987;28;19960;-36
2023/12/22 07:52:21;;;;;;;;;;;12.10;50.10;;;12.24;53.72;99215.84;5092346;28;20439;-36
2023/12/22 07:54:49;;;;;;;;;;;12.10;50.10;;;12.23;53.62;99216.56;5092802;28;19924;-36
2023/12/22 07:57:17;;;;;;;;;;;12.00;50.00;;;12.23;53.03;99224.09;5091804;28;19924;-36
2023/12/22 07:59:45;;;;;;;;;;;12.00;50.10;;;12.22;52.75;99234.88;5092284;28;19964;-36
2023/12/22 08:02:13;;;;;;;;;;;12.00;50.10;;;12.21;53.21;99240.63;5092585;28;20369;-36
2023/12/22 08:04:41;;;;;;;;;;;12.00;50.10;;;12.21;53.65;99235.59;5092103;28;20422;-36
2023/12/22 08:07:11;;;;;;;;;;;12.00;50.20;;;12.19;53.51;99237.09;5091860;28;19924;-36
2023/12/22 08:09:38;;;;;;;;;;;12.00;50.10;;;12.21;53.49;99240.63;5090235;28;19976;-36
2023/12/22 08:12:08;;;;;;;;;;;12.00;50.20;;;12.21;53.64;99248.16;5084096;28;20351;-36
2023/12/22 08:14:35;;;;;;;;;;;12.00;50.00;;;12.21;53.16;99253.16;5092070;28;20001;-36
2023/12/22 08:17:04;;;;;;;;;;;12.00;50.10;;;12.23;53.26;99257.63;5091399;28;19959;-36
2023/12/22 08:19:32;;;;;;;;;;;12.00;50.20;;;12.25;52.88;99267.84;5091792;28;19936;-36
2023/12/22 08:22:00;;;;;;;;;;;12.10;50.20;;;12.24;53.54;99266.06;5092107;28;20022;-37
2023/12/22 08:24:34;;;;;;;;;;;12.10;50.20;;;12.24;52.97;99268.56;5092045;28;19952;-36
2023/12/22 08:27:02;;;;;;;;;;;12.10;50.10;;;12.25;53.22;99273.75;5091652;28;19928;-36
2023/12/22 08:29:30;;;;;;;;;;;12.10;50.10;;;12.21;53.44;99263.22;5091965;28;20004;-37
2023/12/22 08:32:00;;;;;;;;;;;12.10;50.10;;;12.22;53.16;99267.50;5092281;28;20370;-36
2023/12/22 08:34:28;;;;;;;;;;;12.10;50.20;;;12.22;53.19;99272.53;5092029;28;20359;-36
2023/12/22 08:36:56;;;;;;;;;;;12.10;50.20;;;12.21;53.50;99245.63;5091789;28;19924;-36
2023/12/22 08:39:25;;;;;;;;;;;12.10;50.20;;;12.23;53.43;99249.22;5091625;28;19924;-36
2023/12/22 08:41:54;;;;;;;;;;;12.00;50.10;;;12.23;53.56;99235.03;5091589;28;19924;-36
2023/12/22 08:44:22;;;;;;;;;;;12.00;50.10;;;12.25;53.40;99237.69;5091691;28;19964;-36
2023/12/22 08:46:50;;;;;;;;;;;12.10;50.20;;;12.25;53.83;99247.75;5091250;28;19924;-36
2023/12/22 08:49:19;;;;;;;;;;;12.10;50.20;;;12.27;53.32;99251.28;5091729;28;20329;-36
2023/12/22 08:51:47;;;;;;;;;;;12.10;50.20;;;12.29;53.31;99265.78;5091526;28;20395;-36
2023/12/22 08:54:15;;;;;;;;;;;12.10;50.20;;;12.29;53.57;99265.78;5091590;28;20024;-36
2023/12/22 08:56:43;;;;;;;;;;;12.10;50.20;;;12.29;52.87;99254.84;5091437;28;19931;-36
2023/12/22 08:59:12;;;;;;;;;;;12.10;50.30;;;12.31;52.77;99251.75;5095703;28;19963;-36
2023/12/22 09:01:42;;;;;;;;;;;12.10;50.20;;;12.29;52.86;99250.72;5095918;28;20303;-36
2023/12/22 09:04:10;;;;;;;;;;;12.10;50.30;;;12.29;53.41;99254.84;5095212;28;19931;-36
2023/12/22 09:06:39;;;;;;;;;;;12.10;50.30;;;12.30;53.48;99251.59;5094708;28;20014;-36
2023/12/22 09:09:07;;;;;;;;;;;12.10;50.30;;;12.34;53.58;99253.66;5092913;28;19959;-36
2023/12/22 09:11:35;;;;;;;;;;;12.10;50.30;;;12.31;52.93;99239.22;5094805;28;19924;-36
2023/12/22 09:14:04;;;;;;;;;;;12.10;50.20;;;12.31;53.75;99243.34;5094500;28;20069;-36
2023/12/22 09:16:34;;;;;;;;;;;12.10;50.30;;;12.31;53.61;99244.22;5094319;28;19924;-36
2023/12/22 09:19:02;;;;;;;;;;;12.10;50.30;;;12.33;53.05;99257.81;5094961;28;19956;-36
2023/12/22 09:21:30;;;;;;;;;;;12.10;50.30;;;12.33;53.24;99249.41;5094655;28;19924;-36
2023/12/22 09:23:57;;;;;;;;;;;12.10;50.30;;;12.33;53.09;99246.91;5094393;28;20011;-36
2023/12/22 09:26:26;;;;;;;;;;;12.10;50.30;;;12.34;53.32;99248.66;5093825;28;19928;-36
2023/12/22 09:28:56;;;;;;;;;;;12.10;50.30;;;12.34;52.71;99258.69;5094548;28;19924;-36
2023/12/22 09:31:24;;;;;;;;;;;12.10;50.40;;;12.37;53.17;99251.50;5094575;28;19968;-36
2023/12/22 09:33:54;;;;;;;;;;;12.20;50.40;;;12.36;52.75;99248.09;5094480;28;19989;-36
2023/12/22 09:36:22;;;;;;;;;;;12.20;50.40;;;12.41;53.75;99251.03;5093852;28;19931;-36
2023/12/22 09:38:50;;;;;;;;;;;12.20;50.30;;;12.41;53.40;99241.00;5094326;28;20011;-36
2023/12/22 09:41:18;;;;;;;;;;;12.20;50.20;;;12.42;53.97;99248.69;5094553;28;19924;-36
2023/12/22 09:43:47;;;;;;;;;;;12.30;50.20;;;12.41;53.32;99241.00;5094259;28;19947;-36
2023/12/22 09:46:15;;;;;;;;;;;12.30;50.20;;;12.43;53.70;99250.47;5093676;28;19966;-36
2023/12/22 09:48:43;;;;;;;;;;;12.30;50.20;;;12.43;53.35;99226.97;5094477;28;19931;-36
2023/12/22 09:51:14;;;;;;;;;;;12.30;50.10;;;12.42;53.36;99217.66;5094629;28;19924;-36
2023/12/22 09:53:42;;;;;;;;;;;12.30;50.10;;;12.40;52.94;99209.06;5094372;28;19928;-36
2023/12/22 09:56:10;;;;;;;;;;;12.30;50.20;;;12.38;52.99;99200.53;5093445;28;19933;-37
2023/12/22 09:58:38;;;;;;;;;;;12.20;50.10;;;12.37;53.10;99201.25;5094208;28;19977;-36
2023/12/22 10:01:06;;;;;;;;;;;12.20;50.20;;;12.35;53.59;99205.22;5093874;28;19961;-37
2023/12/22 10:03:35;;;;;;;;;;;12.20;50.20;;;12.34;53.60;99208.47;5093899;28;19954;-36
2023/12/22 10:06:03;;;;;;;;;;;12.20;50.30;;;12.32;52.69;99204.94;5093119;28;19935;-37
2023/12/22 10:08:33;;;;;;;;;;;12.20;50.40;;;12.29;53.65;99209.63;5106320;22;19928;-34
2023/12/22 10:11:01;;;;;;;;;;;12.10;50.40;;;12.25;54.04;99193.41;5070493;28;19925;-35
2023/12/22 10:13:29;;;;;;;;;;;12.10;50.40;;;12.29;53.55;99204.63;5073732;28;19932;-35
2023/12/22 10:15:58;;;;;;;;;;;12.10;50.40;;;12.28;53.01;99217.91;5072963;28;19978;-36
2023/12/22 10:18:26;;;;;;;;;;;12.10;50.40;;;12.27;53.99;99216.13;5073536;28;19994;-35
2023/12/22 10:20:54;;;;;;;;;;;12.10;50.50;;;12.26;53.81;99211.88;5073509;28;19975;-35
2023/12/22 10:23:22;;;;;;;;;;;12.10;50.50;;;12.25;53.39;99207.56;5073903;28;19959;-35
2023/12/22 10:25:52;;;;;;;;;;;12.10;50.60;;;12.25;53.69;99198.41;5073111;28;19924;-33
2023/12/22 10:28:24;;;;;;;;;;;12.10;50.60;;;12.24;54.02;99188.22;5069343;28;20281;-35
2023/12/22 10:30:52;;;;;;;;;;;12.10;50.60;;;12.22;54.02;99183.03;5070666;28;19987;-34
2023/12/22 10:33:20;;;;;;;;;;;12.10;50.60;;;12.20;54.00;99178.59;5073624;28;20421;-34
2023/12/22 10:35:50;;;;;;;;;;;12.00;50.50;;;12.23;53.11;99183.91;5073219;28;19924;-35
2023/12/22 10:38:19;;;;;;;;;;;12.00;50.50;;;12.21;53.30;99177.84;5073261;28;19974;-35
2023/12/22 10:40:47;;;;;;;;;;;12.00;50.60;;;12.21;54.05;99175.34;5071885;28;20303;-35
2023/12/22 10:43:17;;;;;;;;;;;12.00;50.60;;;12.21;53.83;99181.25;5071973;28;19925;-35
2023/12/22 10:45:45;;;;;;;;;;;12.00;50.60;;;12.22;54.07;99179.63;5073120;28;19986;-35
2023/12/22 10:48:13;;;;;;;;;;;12.10;50.60;;;12.22;53.95;99172.09;5073295;28;19928;-35
2023/12/22 10:50:42;;;;;;;;;;;12.00;50.60;;;12.21;53.65;99177.84;5072811;28;19970;-36
2023/12/22 10:53:11;;;;;;;;;;;12.10;51.30;;;12.23;54.27;99183.91;5072773;28;19978;-35
2023/12/22 10:55:42;;;;;;;;;;;12.10;50.70;;;12.24;53.14;99175.66;5072578;28;19947;-35
2023/12/22 10:58:09;;;;;;;;;;;12.00;51.20;;;12.25;53.93;99167.38;5071842;28;19932;-35
2023/12/22 11:00:39;;;;;;;;;;;12.00;50.60;;;12.25;54.23;99149.81;5072863;28;19987;-35
2023/12/22 11:03:08;;;;;;;;;;;12.10;50.70;;;12.29;53.88;99164.44;5073402;28;19994;-35
2023/12/22 11:05:36;;;;;;;;;;;12.10;50.60;;;12.33;53.65;99149.81;5072642;28;20346;-34
2023/12/22 11:08:05;;;;;;;;;;;12.10;50.50;;;12.35;54.17;99137.41;5071883;28;19986;-35
2023/12/22 11:10:33;;;;;;;;;;;12.20;50.50;;;12.40;53.07;99136.25;5071920;28;20023;-34
2023/12/22 11:13:01;;;;;;;;;;;12.20;50.40;;;12.43;53.41;99139.06;5072733;28;19931;-34
2023/12/22 11:15:28;;;;;;;;;;;12.30;50.40;;;12.45;53.04;99142.63;5072525;28;20295;-35
2023/12/22 11:17:58;;;;;;;;;;;12.30;50.30;;;12.47;52.82;99147.03;5071919;28;20441;-34
2023/12/22 11:20:27;;;;;;;;;;;12.30;50.20;;;12.48;53.62;99147.94;5072061;28;20343;-35
2023/12/22 11:22:55;;;;;;;;;;;12.30;50.10;;;12.47;53.97;99142.03;5073081;28;19924;-35